sensor_id;sensor_type;location;lat;lon;timestamp;P1;durP1;ratioP1;P2;durP2;ratioP2
73283;SDS011;61519;60.050;18.582;2023-09-30T00:01:17;10.43;;;4.20;;
73283;SDS011;61519;60.050;18.582;2023-09-30T00:03:43;16.88;;;4.65;;
73283;SDS011;61519;60.050;18.582;2023-09-30T00:06:09;9.90;;;3.90;;
73283;SDS011;61519;60.050;18.582;2023-09-30T00:08:34;14.63;;;4.77;;
73283;SDS011;61519;60.050;18.582;2023-09-30T00:11:00;10.13;;;3.83;;
73283;SDS011;61519;60.050;18.582;2023-09-30T00:13:25;14.03;;;4.83;;
73283;SDS011;61519;60.050;18.582;2023-09-30T00:15:50;11.50;;;4.10;;
73283;SDS011;61519;60.050;18.582;2023-09-30T00:18:16;13.85;;;4.55;;
73283;SDS011;61519;60.050;18.582;2023-09-30T00:20:41;12.77;;;4.97;;
73283;SDS011;61519;60.050;18.582;2023-09-30T00:23:06;13.00;;;4.73;;
73283;SDS011;61519;60.050;18.582;2023-09-30T00:25:32;12.97;;;4.83;;
73283;SDS011;61519;60.050;18.582;2023-09-30T00:27:58;11.82;;;4.25;;
73283;SDS011;61519;60.050;18.582;2023-09-30T00:30:23;11.53;;;4.97;;
73283;SDS011;61519;60.050;18.582;2023-09-30T00:32:49;15.63;;;5.13;;
73283;SDS011;61519;60.050;18.582;2023-09-30T00:35:14;17.10;;;4.30;;
73283;SDS011;61519;60.050;18.582;2023-09-30T00:37:41;12.57;;;4.60;;
73283;SDS011;61519;60.050;18.582;2023-09-30T00:40:07;10.05;;;4.35;;
73283;SDS011;61519;60.050;18.582;2023-09-30T00:42:42;12.00;;;4.30;;
73283;SDS011;61519;60.050;18.582;2023-09-30T00:45:07;12.17;;;4.47;;
73283;SDS011;61519;60.050;18.582;2023-09-30T00:47:37;11.63;;;4.80;;
73283;SDS011;61519;60.050;18.582;2023-09-30T00:50:03;13.43;;;4.60;;
73283;SDS011;61519;60.050;18.582;2023-09-30T00:52:32;9.23;;;4.22;;
73283;SDS011;61519;60.050;18.582;2023-09-30T00:54:58;7.47;;;4.03;;
73283;SDS011;61519;60.050;18.582;2023-09-30T00:57:24;9.15;;;4.28;;
73283;SDS011;61519;60.050;18.582;2023-09-30T00:59:50;11.23;;;4.28;;
73283;SDS011;61519;60.050;18.582;2023-09-30T01:02:19;9.10;;;4.60;;
73283;SDS011;61519;60.050;18.582;2023-09-30T01:04:47;8.10;;;3.75;;
73283;SDS011;61519;60.050;18.582;2023-09-30T01:07:13;7.87;;;4.20;;
73283;SDS011;61519;60.050;18.582;2023-09-30T01:09:38;9.60;;;4.20;;
73283;SDS011;61519;60.050;18.582;2023-09-30T01:12:04;9.93;;;4.10;;
73283;SDS011;61519;60.050;18.582;2023-09-30T01:14:30;8.98;;;4.72;;
73283;SDS011;61519;60.050;18.582;2023-09-30T01:16:57;7.65;;;3.80;;
73283;SDS011;61519;60.050;18.582;2023-09-30T01:19:23;9.80;;;4.20;;
73283;SDS011;61519;60.050;18.582;2023-09-30T01:21:59;9.35;;;4.03;;
73283;SDS011;61519;60.050;18.582;2023-09-30T01:24:25;8.55;;;3.83;;
73283;SDS011;61519;60.050;18.582;2023-09-30T01:26:51;10.82;;;4.10;;
73283;SDS011;61519;60.050;18.582;2023-09-30T01:29:17;8.23;;;3.90;;
73283;SDS011;61519;60.050;18.582;2023-09-30T01:31:42;7.17;;;4.10;;
73283;SDS011;61519;60.050;18.582;2023-09-30T01:34:08;9.23;;;3.90;;
73283;SDS011;61519;60.050;18.582;2023-09-30T01:36:35;8.02;;;3.92;;
73283;SDS011;61519;60.050;18.582;2023-09-30T01:39:01;8.35;;;3.70;;
73283;SDS011;61519;60.050;18.582;2023-09-30T01:41:27;8.82;;;4.15;;
73283;SDS011;61519;60.050;18.582;2023-09-30T01:43:53;6.20;;;3.55;;
73283;SDS011;61519;60.050;18.582;2023-09-30T01:46:18;8.43;;;3.70;;
73283;SDS011;61519;60.050;18.582;2023-09-30T01:48:44;6.93;;;3.43;;
73283;SDS011;61519;60.050;18.582;2023-09-30T01:51:09;8.27;;;3.30;;
73283;SDS011;61519;60.050;18.582;2023-09-30T01:53:34;5.63;;;3.10;;
73283;SDS011;61519;60.050;18.582;2023-09-30T01:56:00;7.13;;;3.60;;
73283;SDS011;61519;60.050;18.582;2023-09-30T01:58:25;7.23;;;2.83;;
73283;SDS011;61519;60.050;18.582;2023-09-30T02:00:51;6.65;;;2.60;;
73283;SDS011;61519;60.050;18.582;2023-09-30T02:03:17;9.07;;;2.60;;
73283;SDS011;61519;60.050;18.582;2023-09-30T02:05:42;5.40;;;2.10;;
73283;SDS011;61519;60.050;18.582;2023-09-30T02:08:08;5.30;;;2.08;;
73283;SDS011;61519;60.050;18.582;2023-09-30T02:10:34;5.13;;;2.30;;
73283;SDS011;61519;60.050;18.582;2023-09-30T02:12:59;4.47;;;1.83;;
73283;SDS011;61519;60.050;18.582;2023-09-30T02:15:25;5.20;;;2.40;;
73283;SDS011;61519;60.050;18.582;2023-09-30T02:17:51;5.67;;;2.43;;
73283;SDS011;61519;60.050;18.582;2023-09-30T02:20:16;5.47;;;2.40;;
73283;SDS011;61519;60.050;18.582;2023-09-30T02:22:44;5.82;;;2.15;;
73283;SDS011;61519;60.050;18.582;2023-09-30T02:25:10;4.93;;;1.85;;
73283;SDS011;61519;60.050;18.582;2023-09-30T02:27:37;5.05;;;2.20;;
73283;SDS011;61519;60.050;18.582;2023-09-30T02:30:04;4.00;;;1.80;;
73283;SDS011;61519;60.050;18.582;2023-09-30T02:32:30;4.72;;;2.13;;
73283;SDS011;61519;60.050;18.582;2023-09-30T02:34:57;4.47;;;1.92;;
73283;SDS011;61519;60.050;18.582;2023-09-30T02:37:23;5.57;;;2.25;;
73283;SDS011;61519;60.050;18.582;2023-09-30T02:39:48;4.90;;;2.00;;
73283;SDS011;61519;60.050;18.582;2023-09-30T02:42:14;4.53;;;2.13;;
73283;SDS011;61519;60.050;18.582;2023-09-30T02:44:40;4.00;;;1.92;;
73283;SDS011;61519;60.050;18.582;2023-09-30T02:47:05;4.50;;;1.90;;
73283;SDS011;61519;60.050;18.582;2023-09-30T02:49:34;5.67;;;1.93;;
73283;SDS011;61519;60.050;18.582;2023-09-30T02:52:00;4.10;;;1.70;;
73283;SDS011;61519;60.050;18.582;2023-09-30T02:54:26;5.43;;;2.45;;
73283;SDS011;61519;60.050;18.582;2023-09-30T02:56:52;7.57;;;2.00;;
73283;SDS011;61519;60.050;18.582;2023-09-30T02:59:17;5.43;;;1.60;;
73283;SDS011;61519;60.050;18.582;2023-09-30T03:01:43;4.40;;;1.88;;
73283;SDS011;61519;60.050;18.582;2023-09-30T03:04:09;4.03;;;1.80;;
73283;SDS011;61519;60.050;18.582;2023-09-30T03:06:37;4.90;;;1.90;;
73283;SDS011;61519;60.050;18.582;2023-09-30T03:09:03;6.45;;;1.77;;
73283;SDS011;61519;60.050;18.582;2023-09-30T03:11:29;4.43;;;2.03;;
73283;SDS011;61519;60.050;18.582;2023-09-30T03:13:56;4.32;;;1.80;;
73283;SDS011;61519;60.050;18.582;2023-09-30T03:16:22;7.72;;;2.15;;
73283;SDS011;61519;60.050;18.582;2023-09-30T03:18:49;4.93;;;1.67;;
73283;SDS011;61519;60.050;18.582;2023-09-30T03:21:14;4.80;;;1.77;;
73283;SDS011;61519;60.050;18.582;2023-09-30T03:23:40;4.80;;;2.20;;
73283;SDS011;61519;60.050;18.582;2023-09-30T03:26:06;5.60;;;1.63;;
73283;SDS011;61519;60.050;18.582;2023-09-30T03:28:38;6.82;;;1.50;;
73283;SDS011;61519;60.050;18.582;2023-09-30T03:31:04;5.00;;;1.80;;
73283;SDS011;61519;60.050;18.582;2023-09-30T03:33:33;4.20;;;1.70;;
73283;SDS011;61519;60.050;18.582;2023-09-30T03:35:59;3.55;;;1.48;;
73283;SDS011;61519;60.050;18.582;2023-09-30T03:38:25;4.57;;;1.40;;
73283;SDS011;61519;60.050;18.582;2023-09-30T03:40:51;3.58;;;1.50;;
73283;SDS011;61519;60.050;18.582;2023-09-30T03:43:18;5.38;;;1.52;;
73283;SDS011;61519;60.050;18.582;2023-09-30T03:45:44;3.40;;;1.50;;
73283;SDS011;61519;60.050;18.582;2023-09-30T03:48:10;3.80;;;1.50;;
73283;SDS011;61519;60.050;18.582;2023-09-30T03:50:36;5.50;;;1.50;;
73283;SDS011;61519;60.050;18.582;2023-09-30T03:53:02;3.83;;;1.27;;
73283;SDS011;61519;60.050;18.582;2023-09-30T03:55:30;5.32;;;1.45;;
73283;SDS011;61519;60.050;18.582;2023-09-30T03:57:56;5.20;;;1.40;;
73283;SDS011;61519;60.050;18.582;2023-09-30T04:00:22;8.27;;;1.27;;
73283;SDS011;61519;60.050;18.582;2023-09-30T04:02:49;3.90;;;1.25;;
73283;SDS011;61519;60.050;18.582;2023-09-30T04:05:15;3.20;;;1.00;;
73283;SDS011;61519;60.050;18.582;2023-09-30T04:07:42;4.18;;;0.95;;
73283;SDS011;61519;60.050;18.582;2023-09-30T04:10:08;5.05;;;1.50;;
73283;SDS011;61519;60.050;18.582;2023-09-30T04:12:34;7.13;;;1.40;;
73283;SDS011;61519;60.050;18.582;2023-09-30T04:15:00;4.30;;;1.42;;
73283;SDS011;61519;60.050;18.582;2023-09-30T04:17:25;4.43;;;1.30;;
73283;SDS011;61519;60.050;18.582;2023-09-30T04:19:52;4.43;;;1.23;;
73283;SDS011;61519;60.050;18.582;2023-09-30T04:22:17;3.17;;;1.15;;
73283;SDS011;61519;60.050;18.582;2023-09-30T04:24:44;4.10;;;1.55;;
73283;SDS011;61519;60.050;18.582;2023-09-30T04:27:09;3.20;;;0.90;;
73283;SDS011;61519;60.050;18.582;2023-09-30T04:29:35;5.67;;;1.60;;
73283;SDS011;61519;60.050;18.582;2023-09-30T04:32:00;3.40;;;1.50;;
73283;SDS011;61519;60.050;18.582;2023-09-30T04:34:26;4.50;;;1.40;;
73283;SDS011;61519;60.050;18.582;2023-09-30T04:36:53;4.63;;;1.27;;
73283;SDS011;61519;60.050;18.582;2023-09-30T04:39:18;5.03;;;1.63;;
73283;SDS011;61519;60.050;18.582;2023-09-30T04:41:44;3.27;;;1.10;;
73283;SDS011;61519;60.050;18.582;2023-09-30T04:44:09;5.80;;;1.43;;
73283;SDS011;61519;60.050;18.582;2023-09-30T04:46:35;6.37;;;1.43;;
73283;SDS011;61519;60.050;18.582;2023-09-30T04:49:01;7.43;;;1.65;;
73283;SDS011;61519;60.050;18.582;2023-09-30T04:51:29;7.60;;;1.50;;
73283;SDS011;61519;60.050;18.582;2023-09-30T04:53:58;5.13;;;1.75;;
73283;SDS011;61519;60.050;18.582;2023-09-30T04:56:24;5.53;;;1.42;;
73283;SDS011;61519;60.050;18.582;2023-09-30T04:58:50;6.43;;;1.47;;
73283;SDS011;61519;60.050;18.582;2023-09-30T05:01:15;4.87;;;1.63;;
73283;SDS011;61519;60.050;18.582;2023-09-30T05:03:43;7.28;;;1.67;;
73283;SDS011;61519;60.050;18.582;2023-09-30T05:06:09;5.67;;;1.50;;
73283;SDS011;61519;60.050;18.582;2023-09-30T05:08:34;6.50;;;1.50;;
73283;SDS011;61519;60.050;18.582;2023-09-30T05:11:00;4.43;;;1.40;;
73283;SDS011;61519;60.050;18.582;2023-09-30T05:13:25;6.70;;;1.90;;
73283;SDS011;61519;60.050;18.582;2023-09-30T05:15:51;7.53;;;1.50;;
73283;SDS011;61519;60.050;18.582;2023-09-30T05:18:17;5.57;;;1.55;;
73283;SDS011;61519;60.050;18.582;2023-09-30T05:20:42;5.47;;;1.60;;
73283;SDS011;61519;60.050;18.582;2023-09-30T05:23:08;6.32;;;1.83;;
73283;SDS011;61519;60.050;18.582;2023-09-30T05:25:37;3.90;;;1.63;;
73283;SDS011;61519;60.050;18.582;2023-09-30T05:28:04;5.85;;;1.83;;
73283;SDS011;61519;60.050;18.582;2023-09-30T05:30:32;6.13;;;1.90;;
73283;SDS011;61519;60.050;18.582;2023-09-30T05:32:58;5.88;;;1.48;;
73283;SDS011;61519;60.050;18.582;2023-09-30T05:35:23;4.57;;;1.57;;
73283;SDS011;61519;60.050;18.582;2023-09-30T05:37:49;5.78;;;1.85;;
73283;SDS011;61519;60.050;18.582;2023-09-30T05:40:17;6.57;;;2.22;;
73283;SDS011;61519;60.050;18.582;2023-09-30T05:42:55;6.23;;;1.70;;
73283;SDS011;61519;60.050;18.582;2023-09-30T05:45:23;7.25;;;1.30;;
73283;SDS011;61519;60.050;18.582;2023-09-30T05:47:48;5.65;;;1.73;;
73283;SDS011;61519;60.050;18.582;2023-09-30T05:50:14;5.73;;;2.20;;
73283;SDS011;61519;60.050;18.582;2023-09-30T05:52:41;5.43;;;1.70;;
73283;SDS011;61519;60.050;18.582;2023-09-30T05:55:08;7.00;;;2.15;;
73283;SDS011;61519;60.050;18.582;2023-09-30T05:57:33;8.37;;;1.67;;
73283;SDS011;61519;60.050;18.582;2023-09-30T06:00:00;6.43;;;1.60;;
73283;SDS011;61519;60.050;18.582;2023-09-30T06:02:26;5.85;;;1.33;;
73283;SDS011;61519;60.050;18.582;2023-09-30T06:04:51;8.13;;;1.87;;
73283;SDS011;61519;60.050;18.582;2023-09-30T06:07:18;6.75;;;1.42;;
73283;SDS011;61519;60.050;18.582;2023-09-30T06:09:45;5.47;;;1.57;;
73283;SDS011;61519;60.050;18.582;2023-09-30T06:12:13;5.22;;;1.60;;
73283;SDS011;61519;60.050;18.582;2023-09-30T06:14:38;5.95;;;1.60;;
73283;SDS011;61519;60.050;18.582;2023-09-30T06:17:05;5.97;;;1.60;;
73283;SDS011;61519;60.050;18.582;2023-09-30T06:19:31;5.40;;;1.80;;
73283;SDS011;61519;60.050;18.582;2023-09-30T06:21:57;5.77;;;1.60;;
73283;SDS011;61519;60.050;18.582;2023-09-30T06:24:22;6.70;;;1.90;;
73283;SDS011;61519;60.050;18.582;2023-09-30T06:26:47;9.63;;;1.93;;
73283;SDS011;61519;60.050;18.582;2023-09-30T06:29:16;8.35;;;1.88;;
73283;SDS011;61519;60.050;18.582;2023-09-30T06:31:42;6.05;;;2.10;;
73283;SDS011;61519;60.050;18.582;2023-09-30T06:34:07;8.20;;;2.00;;
73283;SDS011;61519;60.050;18.582;2023-09-30T06:36:32;6.83;;;1.80;;
73283;SDS011;61519;60.050;18.582;2023-09-30T06:38:58;7.27;;;1.80;;
73283;SDS011;61519;60.050;18.582;2023-09-30T06:41:23;6.37;;;1.90;;
73283;SDS011;61519;60.050;18.582;2023-09-30T06:43:50;8.00;;;2.25;;
73283;SDS011;61519;60.050;18.582;2023-09-30T06:46:16;8.65;;;2.22;;
73283;SDS011;61519;60.050;18.582;2023-09-30T06:48:42;7.07;;;1.90;;
73283;SDS011;61519;60.050;18.582;2023-09-30T06:51:08;6.50;;;1.98;;
73283;SDS011;61519;60.050;18.582;2023-09-30T06:53:39;9.80;;;1.90;;
73283;SDS011;61519;60.050;18.582;2023-09-30T06:56:04;7.77;;;1.97;;
73283;SDS011;61519;60.050;18.582;2023-09-30T06:58:31;9.98;;;1.80;;
73283;SDS011;61519;60.050;18.582;2023-09-30T07:00:56;5.70;;;1.90;;
73283;SDS011;61519;60.050;18.582;2023-09-30T07:03:21;7.73;;;2.33;;
73283;SDS011;61519;60.050;18.582;2023-09-30T07:05:47;6.93;;;1.70;;
73283;SDS011;61519;60.050;18.582;2023-09-30T07:08:15;7.45;;;2.17;;
73283;SDS011;61519;60.050;18.582;2023-09-30T07:10:41;6.35;;;1.98;;
73283;SDS011;61519;60.050;18.582;2023-09-30T07:13:07;9.17;;;2.23;;
73283;SDS011;61519;60.050;18.582;2023-09-30T07:15:32;7.72;;;1.95;;
73283;SDS011;61519;60.050;18.582;2023-09-30T07:17:58;6.28;;;1.90;;
73283;SDS011;61519;60.050;18.582;2023-09-30T07:20:23;9.13;;;2.17;;
73283;SDS011;61519;60.050;18.582;2023-09-30T07:22:48;12.13;;;2.60;;
73283;SDS011;61519;60.050;18.582;2023-09-30T07:25:14;7.80;;;2.20;;
73283;SDS011;61519;60.050;18.582;2023-09-30T07:27:41;8.35;;;2.38;;
73283;SDS011;61519;60.050;18.582;2023-09-30T07:30:08;10.27;;;2.20;;
73283;SDS011;61519;60.050;18.582;2023-09-30T07:32:35;7.15;;;2.20;;
73283;SDS011;61519;60.050;18.582;2023-09-30T07:35:00;6.00;;;1.90;;
73283;SDS011;61519;60.050;18.582;2023-09-30T07:37:25;6.60;;;2.03;;
73283;SDS011;61519;60.050;18.582;2023-09-30T07:39:51;6.67;;;2.20;;
73283;SDS011;61519;60.050;18.582;2023-09-30T07:42:16;6.90;;;2.00;;
73283;SDS011;61519;60.050;18.582;2023-09-30T07:44:42;7.25;;;2.00;;
73283;SDS011;61519;60.050;18.582;2023-09-30T07:47:07;7.07;;;2.30;;
73283;SDS011;61519;60.050;18.582;2023-09-30T07:49:33;6.72;;;1.65;;
73283;SDS011;61519;60.050;18.582;2023-09-30T07:51:59;8.17;;;1.93;;
73283;SDS011;61519;60.050;18.582;2023-09-30T07:54:24;6.57;;;1.93;;
73283;SDS011;61519;60.050;18.582;2023-09-30T07:56:49;6.70;;;1.70;;
73283;SDS011;61519;60.050;18.582;2023-09-30T07:59:15;7.47;;;2.10;;
73283;SDS011;61519;60.050;18.582;2023-09-30T08:01:40;7.20;;;2.00;;
73283;SDS011;61519;60.050;18.582;2023-09-30T08:04:06;6.43;;;2.10;;
73283;SDS011;61519;60.050;18.582;2023-09-30T08:06:31;8.83;;;1.90;;
73283;SDS011;61519;60.050;18.582;2023-09-30T08:08:57;8.87;;;1.70;;
73283;SDS011;61519;60.050;18.582;2023-09-30T08:11:22;9.37;;;1.90;;
73283;SDS011;61519;60.050;18.582;2023-09-30T08:13:50;6.80;;;1.95;;
73283;SDS011;61519;60.050;18.582;2023-09-30T08:16:15;7.67;;;2.07;;
73283;SDS011;61519;60.050;18.582;2023-09-30T08:18:40;6.93;;;2.08;;
73283;SDS011;61519;60.050;18.582;2023-09-30T08:21:08;6.35;;;2.00;;
73283;SDS011;61519;60.050;18.582;2023-09-30T08:23:35;7.27;;;2.33;;
73283;SDS011;61519;60.050;18.582;2023-09-30T08:26:00;7.10;;;2.07;;
73283;SDS011;61519;60.050;18.582;2023-09-30T08:28:26;7.65;;;2.17;;
73283;SDS011;61519;60.050;18.582;2023-09-30T08:30:51;6.23;;;2.00;;
73283;SDS011;61519;60.050;18.582;2023-09-30T08:33:19;8.57;;;2.20;;
73283;SDS011;61519;60.050;18.582;2023-09-30T08:35:44;7.95;;;2.60;;
73283;SDS011;61519;60.050;18.582;2023-09-30T08:38:10;7.43;;;1.90;;
73283;SDS011;61519;60.050;18.582;2023-09-30T08:40:35;6.10;;;2.00;;
73283;SDS011;61519;60.050;18.582;2023-09-30T08:43:01;5.20;;;2.10;;
73283;SDS011;61519;60.050;18.582;2023-09-30T08:45:29;6.78;;;2.00;;
73283;SDS011;61519;60.050;18.582;2023-09-30T08:47:58;6.38;;;2.20;;
73283;SDS011;61519;60.050;18.582;2023-09-30T08:50:30;7.63;;;2.40;;
73283;SDS011;61519;60.050;18.582;2023-09-30T08:52:56;6.13;;;2.55;;
73283;SDS011;61519;60.050;18.582;2023-09-30T08:55:22;5.70;;;1.70;;
73283;SDS011;61519;60.050;18.582;2023-09-30T08:57:49;6.90;;;2.00;;
73283;SDS011;61519;60.050;18.582;2023-09-30T09:00:15;6.93;;;2.05;;
73283;SDS011;61519;60.050;18.582;2023-09-30T09:02:41;7.73;;;2.00;;
73283;SDS011;61519;60.050;18.582;2023-09-30T09:05:07;6.10;;;1.75;;
73283;SDS011;61519;60.050;18.582;2023-09-30T09:07:34;5.80;;;2.00;;
73283;SDS011;61519;60.050;18.582;2023-09-30T09:10:07;5.97;;;1.60;;
73283;SDS011;61519;60.050;18.582;2023-09-30T09:12:38;5.30;;;2.00;;
73283;SDS011;61519;60.050;18.582;2023-09-30T09:15:07;6.90;;;1.67;;
73283;SDS011;61519;60.050;18.582;2023-09-30T09:17:44;8.13;;;1.70;;
73283;SDS011;61519;60.050;18.582;2023-09-30T09:20:11;5.95;;;1.77;;
73283;SDS011;61519;60.050;18.582;2023-09-30T09:22:42;7.20;;;1.98;;
73283;SDS011;61519;60.050;18.582;2023-09-30T09:25:09;9.60;;;2.17;;
73283;SDS011;61519;60.050;18.582;2023-09-30T09:27:34;6.72;;;1.63;;
73283;SDS011;61519;60.050;18.582;2023-09-30T09:35:30;6.37;;;1.33;;
73283;SDS011;61519;60.050;18.582;2023-09-30T09:40:26;6.90;;;1.50;;
73283;SDS011;61519;60.050;18.582;2023-09-30T09:42:52;5.32;;;1.40;;
73283;SDS011;61519;60.050;18.582;2023-09-30T09:45:24;4.32;;;1.63;;
73283;SDS011;61519;60.050;18.582;2023-09-30T09:47:51;6.05;;;1.55;;
73283;SDS011;61519;60.050;18.582;2023-09-30T09:50:18;5.17;;;1.57;;
73283;SDS011;61519;60.050;18.582;2023-09-30T09:52:46;8.88;;;1.80;;
73283;SDS011;61519;60.050;18.582;2023-09-30T09:55:14;8.43;;;2.35;;
73283;SDS011;61519;60.050;18.582;2023-09-30T09:57:41;9.65;;;2.10;;
73283;SDS011;61519;60.050;18.582;2023-09-30T10:00:08;5.55;;;1.63;;
73283;SDS011;61519;60.050;18.582;2023-09-30T10:02:39;6.50;;;2.40;;
73283;SDS011;61519;60.050;18.582;2023-09-30T10:05:05;7.18;;;1.55;;
73283;SDS011;61519;60.050;18.582;2023-09-30T10:07:43;7.20;;;1.95;;
73283;SDS011;61519;60.050;18.582;2023-09-30T10:10:13;7.10;;;2.30;;
73283;SDS011;61519;60.050;18.582;2023-09-30T10:12:41;8.80;;;2.35;;
73283;SDS011;61519;60.050;18.582;2023-09-30T10:15:33;6.63;;;1.87;;
73283;SDS011;61519;60.050;18.582;2023-09-30T10:20:35;8.82;;;2.70;;
73283;SDS011;61519;60.050;18.582;2023-09-30T10:25:42;6.95;;;1.80;;
73283;SDS011;61519;60.050;18.582;2023-09-30T10:31:12;5.35;;;1.60;;
73283;SDS011;61519;60.050;18.582;2023-09-30T10:36:40;6.65;;;2.42;;
73283;SDS011;61519;60.050;18.582;2023-09-30T10:39:10;5.30;;;1.75;;
73283;SDS011;61519;60.050;18.582;2023-09-30T10:49:45;4.43;;;1.63;;
73283;SDS011;61519;60.050;18.582;2023-09-30T10:52:12;4.93;;;1.40;;
73283;SDS011;61519;60.050;18.582;2023-09-30T10:54:47;5.10;;;1.70;;
73283;SDS011;61519;60.050;18.582;2023-09-30T10:57:14;5.40;;;1.52;;
73283;SDS011;61519;60.050;18.582;2023-09-30T11:00:06;5.63;;;1.63;;
73283;SDS011;61519;60.050;18.582;2023-09-30T11:02:47;5.05;;;1.80;;
73283;SDS011;61519;60.050;18.582;2023-09-30T11:05:16;6.68;;;2.20;;
73283;SDS011;61519;60.050;18.582;2023-09-30T11:07:43;5.77;;;1.73;;
73283;SDS011;61519;60.050;18.582;2023-09-30T11:10:15;5.82;;;1.60;;
73283;SDS011;61519;60.050;18.582;2023-09-30T11:12:53;5.47;;;1.55;;
73283;SDS011;61519;60.050;18.582;2023-09-30T11:15:22;6.40;;;1.90;;
73283;SDS011;61519;60.050;18.582;2023-09-30T11:17:48;6.07;;;1.90;;
73283;SDS011;61519;60.050;18.582;2023-09-30T11:20:15;4.82;;;1.48;;
73283;SDS011;61519;60.050;18.582;2023-09-30T11:22:41;5.87;;;1.60;;
73283;SDS011;61519;60.050;18.582;2023-09-30T11:25:14;4.63;;;1.35;;
73283;SDS011;61519;60.050;18.582;2023-09-30T11:27:41;5.35;;;1.70;;
73283;SDS011;61519;60.050;18.582;2023-09-30T11:30:06;3.93;;;1.17;;
73283;SDS011;61519;60.050;18.582;2023-09-30T11:32:33;5.85;;;1.42;;
73283;SDS011;61519;60.050;18.582;2023-09-30T11:34:58;6.67;;;1.27;;
73283;SDS011;61519;60.050;18.582;2023-09-30T11:37:30;6.10;;;1.53;;
73283;SDS011;61519;60.050;18.582;2023-09-30T11:40:08;9.18;;;1.63;;
73283;SDS011;61519;60.050;18.582;2023-09-30T11:42:36;4.75;;;1.40;;
73283;SDS011;61519;60.050;18.582;2023-09-30T11:45:17;6.23;;;1.10;;
73283;SDS011;61519;60.050;18.582;2023-09-30T11:47:47;6.47;;;1.40;;
73283;SDS011;61519;60.050;18.582;2023-09-30T11:50:13;5.97;;;1.20;;
73283;SDS011;61519;60.050;18.582;2023-09-30T11:52:38;5.20;;;1.03;;
73283;SDS011;61519;60.050;18.582;2023-09-30T11:55:06;4.50;;;1.48;;
73283;SDS011;61519;60.050;18.582;2023-09-30T11:57:32;6.30;;;1.10;;
73283;SDS011;61519;60.050;18.582;2023-09-30T11:59:59;5.25;;;1.38;;
73283;SDS011;61519;60.050;18.582;2023-09-30T12:02:25;4.90;;;1.40;;
73283;SDS011;61519;60.050;18.582;2023-09-30T12:04:50;6.00;;;1.10;;
73283;SDS011;61519;60.050;18.582;2023-09-30T12:07:15;7.05;;;1.38;;
73283;SDS011;61519;60.050;18.582;2023-09-30T12:09:41;5.70;;;1.30;;
73283;SDS011;61519;60.050;18.582;2023-09-30T12:12:07;7.13;;;1.50;;
73283;SDS011;61519;60.050;18.582;2023-09-30T12:14:36;5.15;;;1.13;;
73283;SDS011;61519;60.050;18.582;2023-09-30T12:17:01;7.17;;;1.50;;
73283;SDS011;61519;60.050;18.582;2023-09-30T12:19:26;7.03;;;1.10;;
73283;SDS011;61519;60.050;18.582;2023-09-30T12:21:52;6.20;;;1.43;;
73283;SDS011;61519;60.050;18.582;2023-09-30T12:24:18;5.72;;;1.20;;
73283;SDS011;61519;60.050;18.582;2023-09-30T12:26:49;6.40;;;1.27;;
73283;SDS011;61519;60.050;18.582;2023-09-30T12:29:16;5.63;;;1.30;;
73283;SDS011;61519;60.050;18.582;2023-09-30T12:31:47;6.10;;;1.35;;
73283;SDS011;61519;60.050;18.582;2023-09-30T12:34:15;5.85;;;1.35;;
73283;SDS011;61519;60.050;18.582;2023-09-30T12:36:40;5.43;;;1.20;;
73283;SDS011;61519;60.050;18.582;2023-09-30T12:39:07;5.97;;;1.23;;
73283;SDS011;61519;60.050;18.582;2023-09-30T12:41:39;6.63;;;1.20;;
73283;SDS011;61519;60.050;18.582;2023-09-30T12:44:06;4.63;;;1.08;;
73283;SDS011;61519;60.050;18.582;2023-09-30T12:46:32;6.70;;;1.27;;
73283;SDS011;61519;60.050;18.582;2023-09-30T12:48:59;7.28;;;1.75;;
73283;SDS011;61519;60.050;18.582;2023-09-30T12:51:27;5.00;;;1.10;;
73283;SDS011;61519;60.050;18.582;2023-09-30T12:53:52;7.68;;;1.35;;
73283;SDS011;61519;60.050;18.582;2023-09-30T12:56:17;4.97;;;1.10;;
73283;SDS011;61519;60.050;18.582;2023-09-30T12:58:44;5.65;;;1.30;;
73283;SDS011;61519;60.050;18.582;2023-09-30T13:01:09;5.13;;;1.53;;
73283;SDS011;61519;60.050;18.582;2023-09-30T13:03:34;5.57;;;1.33;;
73283;SDS011;61519;60.050;18.582;2023-09-30T13:06:00;5.93;;;1.07;;
73283;SDS011;61519;60.050;18.582;2023-09-30T13:08:26;4.40;;;0.90;;
73283;SDS011;61519;60.050;18.582;2023-09-30T13:10:51;6.83;;;1.20;;
73283;SDS011;61519;60.050;18.582;2023-09-30T13:13:17;4.45;;;1.00;;
73283;SDS011;61519;60.050;18.582;2023-09-30T13:15:42;4.33;;;0.93;;
73283;SDS011;61519;60.050;18.582;2023-09-30T13:18:08;6.37;;;0.97;;
73283;SDS011;61519;60.050;18.582;2023-09-30T13:20:33;6.23;;;0.90;;
73283;SDS011;61519;60.050;18.582;2023-09-30T13:22:59;5.33;;;1.10;;
73283;SDS011;61519;60.050;18.582;2023-09-30T13:25:25;4.45;;;0.90;;
73283;SDS011;61519;60.050;18.582;2023-09-30T13:27:51;8.18;;;1.20;;
73283;SDS011;61519;60.050;18.582;2023-09-30T13:30:16;5.57;;;0.90;;
73283;SDS011;61519;60.050;18.582;2023-09-30T13:32:42;5.82;;;1.50;;
73283;SDS011;61519;60.050;18.582;2023-09-30T13:35:08;5.60;;;1.00;;
73283;SDS011;61519;60.050;18.582;2023-09-30T13:37:34;4.30;;;1.02;;
73283;SDS011;61519;60.050;18.582;2023-09-30T13:40:02;5.47;;;0.80;;
73283;SDS011;61519;60.050;18.582;2023-09-30T13:42:33;3.63;;;0.77;;
73283;SDS011;61519;60.050;18.582;2023-09-30T13:44:58;5.40;;;0.90;;
73283;SDS011;61519;60.050;18.582;2023-09-30T13:47:24;7.30;;;1.37;;
73283;SDS011;61519;60.050;18.582;2023-09-30T13:49:50;3.10;;;0.77;;
73283;SDS011;61519;60.050;18.582;2023-09-30T13:52:16;5.80;;;1.00;;
73283;SDS011;61519;60.050;18.582;2023-09-30T13:54:41;5.43;;;1.20;;
73283;SDS011;61519;60.050;18.582;2023-09-30T13:57:06;3.43;;;0.93;;
73283;SDS011;61519;60.050;18.582;2023-09-30T13:59:33;4.70;;;0.90;;
73283;SDS011;61519;60.050;18.582;2023-09-30T14:02:02;6.13;;;0.90;;
73283;SDS011;61519;60.050;18.582;2023-09-30T14:04:29;5.20;;;0.80;;
73283;SDS011;61519;60.050;18.582;2023-09-30T14:06:57;5.82;;;1.15;;
73283;SDS011;61519;60.050;18.582;2023-09-30T14:09:24;2.67;;;0.70;;
73283;SDS011;61519;60.050;18.582;2023-09-30T14:11:51;5.68;;;0.80;;
73283;SDS011;61519;60.050;18.582;2023-09-30T14:14:17;6.37;;;1.10;;
73283;SDS011;61519;60.050;18.582;2023-09-30T14:16:42;4.70;;;0.98;;
73283;SDS011;61519;60.050;18.582;2023-09-30T14:19:07;5.18;;;0.90;;
73283;SDS011;61519;60.050;18.582;2023-09-30T14:21:33;6.82;;;1.38;;
73283;SDS011;61519;60.050;18.582;2023-09-30T14:23:58;5.33;;;1.10;;
73283;SDS011;61519;60.050;18.582;2023-09-30T14:26:23;5.57;;;1.10;;
73283;SDS011;61519;60.050;18.582;2023-09-30T14:28:49;2.83;;;0.80;;
73283;SDS011;61519;60.050;18.582;2023-09-30T14:31:14;5.85;;;0.93;;
73283;SDS011;61519;60.050;18.582;2023-09-30T14:33:40;5.65;;;1.25;;
73283;SDS011;61519;60.050;18.582;2023-09-30T14:36:05;4.70;;;0.70;;
73283;SDS011;61519;60.050;18.582;2023-09-30T14:38:31;3.47;;;0.57;;
73283;SDS011;61519;60.050;18.582;2023-09-30T14:40:57;3.50;;;0.98;;
73283;SDS011;61519;60.050;18.582;2023-09-30T14:43:22;4.30;;;0.63;;
73283;SDS011;61519;60.050;18.582;2023-09-30T14:45:47;3.60;;;0.80;;
73283;SDS011;61519;60.050;18.582;2023-09-30T14:48:13;3.47;;;0.60;;
73283;SDS011;61519;60.050;18.582;2023-09-30T14:50:47;3.65;;;0.90;;
73283;SDS011;61519;60.050;18.582;2023-09-30T14:53:13;4.25;;;1.23;;
73283;SDS011;61519;60.050;18.582;2023-09-30T14:55:38;4.37;;;0.77;;
73283;SDS011;61519;60.050;18.582;2023-09-30T14:58:05;3.63;;;0.85;;